WetterOnline ( https://www.wetteronline.de )

Wetter aktuell Auerbach

Aktuelles Wetter: Chemnitz (420m)

6-stündlich | Neueste Meldungen
Ortszeit Temperatur Wetter
So, 05.02. 7:00 -4.4° C bedeckt
So, 05.02. 1:00 -1.9° C bewölkt
Sa, 04.02. 19:00 -0.3° C wolkig
Sa, 04.02. 13:00 0.6° C bewölkt
Sa, 04.02. 7:00 -0.3° C bewölkt
Sa, 04.02. 1:00 2.2° C Regen
Fr, 03.02. 19:00 4.9° C bedeckt
Fr, 03.02. 13:00 4.7° C leichter Regen
Ortszeit Temperatur Wetter
So, 05.02. 12:30 0.0° C bedeckt
So, 05.02. 12:20 0.0° C bedeckt
So, 05.02. 12:10 -0.2° C bedeckt
So, 05.02. 12:00 -0.2° C bedeckt
So, 05.02. 11:50 -0.2° C bedeckt
So, 05.02. 11:40 -0.3° C bedeckt
So, 05.02. 11:30 -0.7° C bedeckt
So, 05.02. 11:00 -1.1° C bedeckt
So, 05.02. 10:30 -1.7° C bedeckt
So, 05.02. 10:00 -2.1° C bedeckt
So, 05.02. 9:30 -2.9° C bedeckt
Ortszeit Relative Feuchte Sichtweite
So, 05.02. 7:00 90% 35 km
So, 05.02. 1:00 87% 55 km
Sa, 04.02. 19:00 80% 50 km
Sa, 04.02. 13:00 73% 60 km
Sa, 04.02. 7:00 84% 55 km
Sa, 04.02. 1:00 96% 4.3 km
Fr, 03.02. 19:00 78% 30 km
Fr, 03.02. 13:00 97% 2.4 km
Ortszeit Relative Feuchte Sichtweite
So, 05.02. 12:30 72% 45 km
So, 05.02. 12:20 72% -
So, 05.02. 12:10 73% -
So, 05.02. 12:00 74% 55 km
So, 05.02. 11:50 74% -
So, 05.02. 11:40 77% -
So, 05.02. 11:30 75% 45 km
So, 05.02. 11:00 76% 45 km
So, 05.02. 10:30 79% 45 km
So, 05.02. 10:00 79% 50 km
So, 05.02. 9:30 83% 45 km
Ortszeit Niederschlagsmenge Niederschlagsart
So, 05.02. 7:00 0.0 l/m2 in 12 Std. -
So, 05.02. 1:00 0.0 l/m2 in 6 Std. -
Sa, 04.02. 19:00 0.1 l/m2 in 12 Std. Schnee, Sprühregen
Sa, 04.02. 13:00 0.1 l/m2 in 6 Std. Schnee
Sa, 04.02. 7:00 4 l/m2 in 12 Std. Schnee, Regen
Sa, 04.02. 1:00 3 l/m2 in 6 Std. Regen
Fr, 03.02. 19:00 6 l/m2 in 12 Std. Regen
Fr, 03.02. 13:00 1 l/m2 in 6 Std. Regen
Ortszeit Niederschlagsmenge Niederschlagsart
So, 05.02. 12:30 0.0 l/m2 in 30 Min -
So, 05.02. 12:20 keine Meldung -
So, 05.02. 12:10 keine Meldung -
So, 05.02. 12:00 0.0 l/m2 in 1 Std. -
So, 05.02. 11:50 keine Meldung -
So, 05.02. 11:40 keine Meldung -
So, 05.02. 11:30 0.0 l/m2 in 30 Min -
So, 05.02. 11:00 0.0 l/m2 in 1 Std. -
So, 05.02. 10:30 0.0 l/m2 in 30 Min -
So, 05.02. 10:00 0.0 l/m2 in 1 Std. -
So, 05.02. 9:30 0.0 l/m2 in 30 Min -
Ortszeit Stärke Spitze Richtung
km/h Bft. km/h Grad Sektor
So, 05.02. 7:00 7 2 11 200° S
So, 05.02. 1:00 7 2 18 10° N
Sa, 04.02. 19:00 11 2 28 310° NW
Sa, 04.02. 13:00 9 2 31 320° NW
Sa, 04.02. 7:00 26 4 67 10° N
Sa, 04.02. 1:00 35 5 56 290° W
Fr, 03.02. 19:00 37 5 69 290° W
Fr, 03.02. 13:00 44 6 67 250° W
Ortszeit Stärke Spitze Richtung
km/h Bft. km/h Grad Sektor
So, 05.02. 12:30 4 1 7 140° SO
So, 05.02. 12:20 4 1 - 140° SO
So, 05.02. 12:10 4 1 - 140° SO
So, 05.02. 12:00 4 1 7 150° SO
So, 05.02. 11:50 4 1 - 150° SO
So, 05.02. 11:40 4 1 - 140° SO
So, 05.02. 11:30 4 1 7 130° SO
So, 05.02. 11:00 4 1 11 150° SO
So, 05.02. 10:30 6 1 9 140° SO
So, 05.02. 10:00 6 1 9 170° S
So, 05.02. 9:30 6 1 9 170° S
Ortszeit Untergrenze Bedeckung Gattung
total tief tief mittel hoch
So, 05.02. 7:00 4200 m 8/8 8/8 - - -
So, 05.02. 1:00 900 m 7/8 7/8 - - -
Sa, 04.02. 19:00 1260 m 5/8 5/8 - - -
Sa, 04.02. 13:00 540 m 7/8 7/8 - - -
Sa, 04.02. 7:00 750 m 7/8 7/8 - - -
Sa, 04.02. 1:00 210 m 7/8 7/8 - - -
Fr, 03.02. 19:00 1440 m 8/8 8/8 - - -
Fr, 03.02. 13:00 210 m 7/8 7/8 - - -
Ortszeit Bedeckungsgrad in Achtel und Wolkenuntergrenze
So, 05.02. 12:30 8(3600m) 8(4800m)
So, 05.02. 12:20 8(3600m) 8(4800m)
So, 05.02. 12:10 8
So, 05.02. 12:00 8(3300m) 8(4500m)
So, 05.02. 11:50 8(3300m) 8(4500m)
So, 05.02. 11:40 8
So, 05.02. 11:30 8(3300m)
So, 05.02. 11:00 8(3300m)
So, 05.02. 10:30 8(3600m) 8(4500m)
So, 05.02. 10:00 7(3900m) 8(4500m) 8(7200m)
So, 05.02. 9:30 6(3600m) 8(4200m) 8(6900m)
Ortszeit Luftdruck NN (hPa) Tendenz (hPa in 3 Std.)
So, 05.02. 7:00 1039 + 0,1
So, 05.02. 1:00 1040 + 0,2
Sa, 04.02. 19:00 1039 + 0,9
Sa, 04.02. 13:00 1037 + 1,6
Sa, 04.02. 7:00 1032 + 4,0
Sa, 04.02. 1:00 1023 + 1,4
Fr, 03.02. 19:00 1019 + 2,1
Fr, 03.02. 13:00 1016 - 2,2
Ortszeit Luftdruck NN (hPa) Tendenz (hPa in 3 Std.)
So, 05.02. 12:30 1037 - 1,3
So, 05.02. 12:20 1037 keine Meldung
So, 05.02. 12:10 1037 keine Meldung
So, 05.02. 12:00 1037 - 1,5
So, 05.02. 11:50 1037 keine Meldung
So, 05.02. 11:40 1037 keine Meldung
So, 05.02. 11:30 1037 - 1,1
So, 05.02. 11:00 1037 - 1,3
So, 05.02. 10:30 1038 - 1,0
So, 05.02. 10:00 1038 - 0,5
So, 05.02. 9:30 1039 - 0,3
Ortszeit Schneehöhe (cm)
So, 05.02. 7:00 0
So, 05.02. 1:00 0
Sa, 04.02. 19:00 0
Sa, 04.02. 13:00 0
Sa, 04.02. 7:00 0
Sa, 04.02. 1:00 0
Fr, 03.02. 19:00 0
Fr, 03.02. 13:00 0
Ortszeit Schneehöhe (cm)
So, 05.02. 12:30 0
So, 05.02. 12:20 0
So, 05.02. 12:10 0
So, 05.02. 12:00 0
So, 05.02. 11:50 0
So, 05.02. 11:40 0
So, 05.02. 11:30 0
So, 05.02. 11:00 0
So, 05.02. 10:30 0
So, 05.02. 10:00 0
So, 05.02. 9:30 0
Link zu dieser Seite / Seite empfehlen

Das Wetter in ...